createdAt,value
2023-05-05T00:01:21.108Z,7.10
2023-05-05T00:03:49.298Z,6.95
2023-05-05T00:06:17.381Z,6.97
2023-05-05T00:08:46.387Z,7.30
2023-05-05T00:11:15.941Z,6.95
2023-05-05T00:13:44.094Z,6.90
2023-05-05T00:16:12.166Z,7.68
2023-05-05T00:18:40.227Z,6.93
2023-05-05T00:21:08.325Z,7.18
2023-05-05T00:23:36.355Z,7.10
2023-05-05T00:26:04.405Z,6.40
2023-05-05T00:28:33.910Z,6.80
2023-05-05T00:31:02.330Z,7.75
2023-05-05T00:33:30.556Z,7.10
2023-05-05T00:36:01.203Z,7.45
2023-05-05T00:38:29.281Z,7.05
2023-05-05T00:40:57.279Z,7.30
2023-05-05T00:43:25.357Z,6.88
2023-05-05T00:46:01.123Z,6.93
2023-05-05T00:48:30.807Z,7.13
2023-05-05T00:51:01.181Z,7.30
2023-05-05T00:53:32.436Z,7.28
2023-05-05T00:56:00.509Z,7.60
2023-05-05T00:58:29.748Z,7.45
2023-05-05T01:00:59.153Z,7.55
2023-05-05T01:03:27.244Z,7.55
2023-05-05T01:06:06.060Z,7.40
2023-05-05T01:08:48.020Z,7.65
2023-05-05T01:11:26.461Z,7.95
2023-05-05T01:14:02.585Z,7.22
2023-05-05T01:16:35.672Z,7.25
2023-05-05T01:19:22.298Z,7.30
2023-05-05T01:21:56.418Z,7.50
2023-05-05T01:24:50.753Z,8.02
2023-05-05T01:27:37.336Z,7.25
2023-05-05T01:30:17.678Z,7.25
2023-05-05T01:32:51.940Z,7.72
2023-05-05T01:35:23.935Z,8.23
2023-05-05T01:37:59.538Z,7.80
2023-05-05T01:40:35.000Z,8.30
2023-05-05T01:43:04.918Z,8.05
2023-05-05T01:45:36.833Z,9.48
2023-05-05T01:48:08.013Z,9.93
2023-05-05T01:50:40.052Z,9.82
2023-05-05T01:53:09.657Z,9.77
2023-05-05T01:55:40.369Z,10.43
2023-05-05T01:58:10.341Z,10.75
2023-05-05T02:00:39.801Z,10.88
2023-05-05T02:03:11.232Z,11.15
2023-05-05T02:05:40.832Z,11.25
2023-05-05T02:08:10.925Z,11.73
2023-05-05T02:10:40.986Z,11.50
2023-05-05T02:13:12.509Z,11.55
2023-05-05T02:15:41.724Z,12.63
2023-05-05T02:18:12.757Z,12.05
2023-05-05T02:20:42.339Z,12.50
2023-05-05T02:23:10.461Z,12.30
2023-05-05T02:25:41.992Z,12.32
2023-05-05T02:28:15.056Z,12.20
2023-05-05T02:30:44.773Z,12.70
2023-05-05T02:33:20.949Z,13.00
2023-05-05T02:35:51.956Z,12.32
2023-05-05T02:38:24.862Z,13.32
2023-05-05T02:40:56.062Z,12.80
2023-05-05T02:43:26.721Z,12.60
2023-05-05T02:45:54.799Z,12.55
2023-05-05T02:48:24.507Z,11.63
2023-05-05T02:50:52.517Z,11.73
2023-05-05T02:53:25.943Z,12.07
2023-05-05T02:55:58.357Z,12.75
2023-05-05T02:58:32.619Z,12.88
2023-05-05T03:01:12.677Z,11.70
2023-05-05T03:03:53.140Z,12.52
2023-05-05T03:06:22.752Z,12.95
2023-05-05T03:08:57.310Z,13.77
2023-05-05T03:11:33.156Z,13.15
2023-05-05T03:14:08.844Z,13.88
2023-05-05T03:16:42.158Z,14.88
2023-05-05T03:19:13.756Z,15.38
2023-05-05T03:21:41.871Z,14.13
2023-05-05T03:24:15.393Z,13.68
2023-05-05T03:26:43.778Z,14.60
2023-05-05T03:29:12.150Z,15.05
2023-05-05T03:31:43.595Z,16.13
2023-05-05T03:34:15.299Z,16.00
2023-05-05T03:36:43.511Z,15.88
2023-05-05T03:39:11.877Z,16.85
2023-05-05T03:41:40.066Z,15.93
2023-05-05T03:44:08.111Z,15.90
2023-05-05T03:46:36.149Z,15.60
2023-05-05T03:49:04.188Z,16.83
2023-05-05T03:51:33.807Z,16.27
2023-05-05T03:54:01.904Z,17.20
2023-05-05T03:56:30.099Z,16.83
2023-05-05T03:59:00.859Z,17.80
2023-05-05T04:01:30.035Z,17.60
2023-05-05T04:03:58.436Z,17.30
2023-05-05T04:06:26.689Z,18.88
2023-05-05T04:08:59.109Z,17.70
2023-05-05T04:11:27.463Z,17.17
2023-05-05T04:13:58.359Z,18.67
2023-05-05T04:16:28.768Z,17.98
2023-05-05T04:18:56.995Z,18.33
2023-05-05T04:21:25.016Z,18.80
2023-05-05T04:23:53.210Z,18.45
2023-05-05T04:26:24.679Z,18.23
2023-05-05T04:28:52.802Z,17.88
2023-05-05T04:31:20.866Z,17.80
2023-05-05T04:33:51.602Z,17.60
2023-05-05T04:36:20.125Z,18.25
2023-05-05T04:38:48.209Z,18.17
2023-05-05T04:41:19.135Z,18.88
2023-05-05T04:43:49.239Z,19.80
2023-05-05T04:46:17.299Z,18.95
2023-05-05T04:48:45.415Z,18.88
2023-05-05T04:51:13.890Z,19.88
2023-05-05T04:53:41.926Z,19.20
2023-05-05T04:56:09.998Z,17.75
2023-05-05T04:58:38.018Z,17.77
2023-05-05T05:01:07.694Z,18.85
2023-05-05T05:03:36.592Z,18.88
2023-05-05T05:06:04.974Z,19.13
2023-05-05T05:08:33.043Z,18.70
2023-05-05T05:11:01.213Z,18.02
2023-05-05T05:13:29.254Z,17.17
2023-05-05T05:15:57.354Z,16.38
2023-05-05T05:18:26.964Z,15.23
2023-05-05T05:20:55.026Z,15.85
2023-05-05T05:23:23.056Z,14.50
2023-05-05T05:25:51.147Z,14.55
2023-05-05T05:28:19.195Z,14.05
2023-05-05T05:30:47.377Z,12.82
2023-05-05T05:33:15.659Z,12.60
2023-05-05T05:35:45.089Z,12.57
2023-05-05T05:38:13.264Z,11.43
2023-05-05T05:40:41.418Z,11.43
2023-05-05T05:43:11.698Z,11.60
2023-05-05T05:45:39.745Z,10.43
2023-05-05T05:48:08.030Z,10.98
2023-05-05T05:50:38.653Z,10.15
2023-05-05T05:53:08.099Z,10.40
2023-05-05T05:55:36.133Z,9.93
2023-05-05T05:58:04.308Z,9.25
2023-05-05T06:00:34.922Z,9.38
2023-05-05T06:03:03.100Z,8.75
2023-05-05T06:05:31.443Z,9.27
2023-05-05T06:07:59.442Z,9.30
2023-05-05T06:10:31.781Z,8.55
2023-05-05T06:13:02.386Z,8.10
2023-05-05T06:15:30.572Z,8.40
2023-05-05T06:17:58.659Z,8.50
2023-05-05T06:20:26.878Z,8.63
2023-05-05T06:22:54.876Z,8.43
2023-05-05T06:25:22.913Z,8.80
2023-05-05T06:27:52.331Z,7.43
2023-05-05T06:30:20.534Z,8.35
2023-05-05T06:32:48.626Z,8.63
2023-05-05T06:35:16.948Z,8.68
2023-05-05T06:37:45.277Z,8.95
2023-05-05T06:40:14.070Z,7.95
2023-05-05T06:42:44.602Z,8.40
2023-05-05T06:45:14.330Z,9.00
2023-05-05T06:47:44.313Z,8.75
2023-05-05T06:50:12.826Z,9.18
2023-05-05T06:52:43.609Z,8.40
2023-05-05T06:55:11.912Z,7.95
2023-05-05T06:57:40.044Z,8.68
2023-05-05T07:00:11.453Z,8.00
2023-05-05T07:02:41.030Z,7.60
2023-05-05T07:05:09.405Z,7.65
2023-05-05T07:07:37.542Z,8.10
2023-05-05T07:10:06.424Z,7.40
2023-05-05T07:12:34.763Z,7.53
2023-05-05T07:15:12.128Z,7.03
2023-05-05T07:17:45.986Z,7.88
2023-05-05T07:20:14.259Z,7.32
2023-05-05T07:22:42.388Z,7.55
2023-05-05T07:25:10.916Z,7.85
2023-05-05T07:27:39.038Z,7.88
2023-05-05T07:30:11.949Z,7.38
2023-05-05T07:32:40.627Z,7.53
2023-05-05T07:35:10.925Z,8.40
2023-05-05T07:37:41.202Z,9.05
2023-05-05T07:40:10.677Z,8.40
2023-05-05T07:42:38.986Z,8.05
2023-05-05T07:45:08.429Z,7.82
2023-05-05T07:47:40.566Z,8.35
2023-05-05T07:50:10.906Z,8.45
2023-05-05T07:55:10.274Z,7.22
2023-05-05T07:57:38.675Z,7.32
2023-05-05T08:00:09.434Z,8.20
2023-05-05T08:02:37.913Z,8.25
2023-05-05T08:05:07.226Z,7.30
2023-05-05T08:07:41.200Z,7.78
2023-05-05T08:10:11.415Z,7.18
2023-05-05T08:12:39.749Z,7.07
2023-05-05T08:15:08.936Z,6.85
2023-05-05T08:17:48.740Z,6.80
2023-05-05T08:20:17.318Z,6.70
2023-05-05T08:22:47.475Z,6.25
2023-05-05T08:25:15.807Z,5.68
2023-05-05T08:27:46.828Z,5.60
2023-05-05T08:30:21.647Z,6.45
2023-05-05T08:32:49.785Z,5.97
2023-05-05T08:35:17.834Z,6.22
2023-05-05T08:37:47.287Z,6.25
2023-05-05T08:40:15.786Z,6.30
2023-05-05T08:42:45.548Z,6.80
2023-05-05T08:45:13.672Z,6.10
2023-05-05T08:47:43.292Z,5.97
2023-05-05T08:50:12.642Z,5.75
2023-05-05T08:52:44.172Z,6.40
2023-05-05T08:55:25.745Z,6.20
2023-05-05T08:57:57.215Z,5.63
2023-05-05T09:00:26.587Z,4.32
2023-05-05T09:02:57.165Z,4.53
2023-05-05T09:05:25.917Z,4.03
2023-05-05T09:07:54.065Z,4.88
2023-05-05T09:10:23.474Z,4.65
2023-05-05T09:12:54.648Z,4.43
2023-05-05T09:15:22.733Z,3.58
2023-05-05T09:17:53.633Z,3.20
2023-05-05T09:20:21.746Z,2.33
2023-05-05T09:22:49.803Z,2.00
2023-05-05T09:25:20.628Z,2.90
2023-05-05T09:27:51.019Z,2.72
2023-05-05T09:30:25.355Z,2.30
2023-05-05T09:32:54.637Z,2.70
2023-05-05T09:35:23.690Z,3.05
2023-05-05T09:37:51.800Z,2.70
2023-05-05T09:40:22.677Z,3.17
2023-05-05T09:43:02.795Z,3.03
2023-05-05T09:45:30.969Z,3.85
2023-05-05T09:48:01.342Z,4.13
2023-05-05T09:50:32.688Z,3.53
2023-05-05T09:53:02.993Z,3.30
2023-05-05T09:55:32.116Z,3.30
2023-05-05T09:58:19.525Z,3.08
2023-05-05T10:00:48.062Z,2.90
2023-05-05T10:03:16.379Z,2.67
2023-05-05T10:05:55.727Z,2.45
2023-05-05T10:08:25.407Z,2.95
2023-05-05T10:10:55.603Z,3.25
2023-05-05T10:13:25.704Z,2.55
2023-05-05T10:15:55.609Z,2.70
2023-05-05T10:18:25.134Z,2.70
2023-05-05T10:20:58.604Z,2.70
2023-05-05T10:23:35.988Z,2.97
2023-05-05T10:26:07.374Z,2.70
2023-05-05T10:28:45.331Z,2.30
2023-05-05T10:31:26.038Z,2.70
2023-05-05T10:33:58.187Z,2.70
2023-05-05T10:36:28.043Z,3.47
2023-05-05T10:38:58.810Z,3.08
2023-05-05T10:41:27.714Z,4.13
2023-05-05T10:43:58.340Z,4.13
2023-05-05T10:46:27.904Z,4.15
2023-05-05T10:49:01.000Z,3.92
2023-05-05T10:51:40.523Z,3.80
2023-05-05T10:54:24.406Z,3.50
2023-05-05T10:56:53.170Z,3.40
2023-05-05T10:59:44.017Z,3.45
2023-05-05T11:02:26.753Z,2.40
2023-05-05T11:05:12.372Z,2.10
2023-05-05T11:07:40.691Z,2.67
2023-05-05T11:10:11.005Z,2.30
2023-05-05T11:13:19.048Z,2.28
2023-05-05T11:15:49.303Z,2.53
2023-05-05T11:18:44.494Z,2.83
2023-05-05T11:21:17.182Z,3.00
2023-05-05T11:23:46.865Z,3.42
2023-05-05T11:26:15.817Z,3.35
2023-05-05T11:29:02.056Z,2.95
2023-05-05T11:31:32.440Z,2.88
2023-05-05T11:34:33.955Z,2.30
2023-05-05T11:37:03.884Z,2.97
2023-05-05T11:39:47.590Z,2.60
2023-05-05T11:42:26.687Z,2.17
2023-05-05T11:44:55.306Z,2.20
2023-05-05T11:47:32.286Z,1.80
2023-05-05T11:50:16.974Z,0.50
2023-05-05T11:52:45.184Z,0.60
2023-05-05T11:55:13.447Z,0.32
2023-05-05T11:57:41.493Z,0.40
2023-05-05T12:00:10.398Z,0.77
2023-05-05T12:02:40.523Z,0.88
2023-05-05T12:05:09.200Z,0.60
2023-05-05T12:07:37.261Z,0.57
2023-05-05T12:10:06.211Z,0.98
2023-05-05T12:12:40.213Z,0.77
2023-05-05T12:15:09.743Z,0.70
2023-05-05T12:17:44.912Z,0.63
2023-05-05T12:20:14.248Z,0.60
2023-05-05T12:22:42.759Z,0.73
2023-05-05T12:25:11.831Z,1.00
2023-05-05T12:27:40.002Z,0.85
2023-05-05T12:30:16.827Z,1.00
2023-05-05T12:32:46.961Z,1.27
2023-05-05T12:35:16.143Z,1.00
2023-05-05T12:37:44.844Z,0.80
2023-05-05T12:40:44.715Z,0.90
2023-05-05T12:43:25.585Z,0.98
2023-05-05T12:46:08.596Z,0.90
2023-05-05T12:51:18.406Z,1.02
2023-05-05T12:53:47.446Z,0.90
2023-05-05T12:56:35.432Z,0.70
2023-05-05T12:59:08.119Z,0.85
2023-05-05T13:01:37.714Z,0.93
2023-05-05T13:04:12.048Z,0.80
2023-05-05T13:06:41.305Z,1.20
2023-05-05T13:09:11.129Z,1.00
2023-05-05T13:11:39.853Z,1.00
2023-05-05T13:14:08.801Z,1.08
2023-05-05T13:16:36.974Z,1.20
2023-05-05T13:19:05.143Z,1.30
2023-05-05T13:21:34.594Z,1.30
2023-05-05T13:24:19.782Z,1.40
2023-05-05T13:26:50.993Z,1.15
2023-05-05T13:29:19.459Z,1.20
2023-05-05T13:31:47.600Z,1.20
2023-05-05T13:34:15.661Z,1.08
2023-05-05T13:36:45.104Z,1.40
2023-05-05T13:39:13.557Z,1.20
2023-05-05T13:41:41.689Z,1.30
2023-05-05T13:44:13.642Z,1.40
2023-05-05T13:46:42.252Z,1.30
2023-05-05T13:49:10.440Z,1.23
2023-05-05T13:51:39.206Z,1.20
2023-05-05T13:54:09.702Z,1.30
2023-05-05T13:56:37.913Z,1.60
2023-05-05T13:59:05.928Z,1.27
2023-05-05T14:01:34.024Z,1.30
2023-05-05T14:04:04.475Z,1.35
2023-05-05T14:06:36.225Z,1.40
2023-05-05T14:09:06.280Z,1.70
2023-05-05T14:11:36.040Z,1.85
2023-05-05T14:14:04.070Z,1.88
2023-05-05T14:16:32.171Z,1.67
2023-05-05T14:19:00.242Z,1.42
2023-05-05T14:21:28.316Z,1.60
2023-05-05T14:23:58.549Z,1.60
2023-05-05T14:26:27.348Z,1.75
2023-05-05T14:28:56.802Z,2.10
2023-05-05T14:31:24.987Z,1.60
2023-05-05T14:33:53.469Z,1.65
2023-05-05T14:36:21.526Z,1.75
2023-05-05T14:38:49.562Z,1.40
2023-05-05T14:41:17.706Z,1.23
2023-05-05T14:43:47.965Z,1.50
2023-05-05T14:46:20.260Z,0.98
2023-05-05T14:48:48.427Z,1.50
2023-05-05T14:51:16.914Z,1.25
2023-05-05T14:53:44.968Z,1.08
2023-05-05T14:56:13.124Z,1.50
2023-05-05T14:58:41.173Z,1.20
2023-05-05T15:01:09.216Z,1.30
2023-05-05T15:03:38.742Z,1.35
2023-05-05T15:06:09.941Z,1.20
2023-05-05T15:08:39.046Z,1.90
2023-05-05T15:11:09.574Z,1.60
2023-05-05T15:13:40.122Z,1.52
2023-05-05T15:16:08.982Z,1.63
2023-05-05T15:18:38.540Z,1.55
2023-05-05T15:21:07.057Z,1.65
2023-05-05T15:23:35.451Z,1.85
2023-05-05T15:26:03.901Z,1.77
2023-05-05T15:28:32.008Z,1.45
2023-05-05T15:31:02.154Z,1.27
2023-05-05T15:33:31.505Z,1.40
2023-05-05T15:36:01.107Z,1.73
2023-05-05T15:38:30.440Z,1.50
2023-05-05T15:40:58.477Z,1.60
2023-05-05T15:43:29.541Z,1.50
2023-05-05T15:45:57.521Z,1.30
2023-05-05T15:48:25.588Z,1.50
2023-05-05T15:50:53.630Z,1.80
2023-05-05T15:53:23.075Z,1.70
2023-05-05T15:55:51.190Z,1.70
2023-05-05T15:58:19.275Z,1.60
2023-05-05T16:00:49.796Z,2.00
2023-05-05T16:03:17.902Z,1.70
2023-05-05T16:05:47.218Z,1.88
2023-05-05T16:08:15.292Z,1.40
2023-05-05T16:10:44.708Z,1.80
2023-05-05T16:13:12.937Z,1.55
2023-05-05T16:15:40.951Z,1.70
2023-05-05T16:18:11.265Z,1.83
2023-05-05T16:20:39.349Z,1.90
2023-05-05T16:23:08.055Z,1.55
2023-05-05T16:25:36.043Z,1.48
2023-05-05T16:28:08.460Z,1.90
2023-05-05T16:30:38.065Z,1.70
2023-05-05T16:33:06.828Z,1.40
2023-05-05T16:35:35.067Z,1.70
2023-05-05T16:38:03.223Z,1.60
2023-05-05T16:40:31.259Z,1.73
2023-05-05T16:42:59.270Z,1.67
2023-05-05T16:45:28.680Z,1.75
2023-05-05T16:47:56.868Z,1.35
2023-05-05T16:50:25.206Z,1.80
2023-05-05T16:52:53.230Z,1.40
2023-05-05T16:55:21.622Z,1.80
2023-05-05T16:57:49.678Z,1.60
2023-05-05T17:00:17.921Z,1.55
2023-05-05T17:02:47.404Z,1.90
2023-05-05T17:05:17.398Z,1.50
2023-05-05T17:07:45.652Z,1.80
2023-05-05T17:10:16.492Z,1.83
2023-05-05T17:12:44.519Z,1.70
2023-05-05T17:15:12.575Z,1.52
2023-05-05T17:17:42.360Z,1.60
2023-05-05T17:20:13.248Z,1.67
2023-05-05T17:22:41.304Z,1.73
2023-05-05T17:25:10.550Z,1.50
2023-05-05T17:27:41.806Z,1.65
2023-05-05T17:30:10.938Z,1.65
2023-05-05T17:32:39.019Z,1.70
2023-05-05T17:35:08.193Z,1.70
2023-05-05T17:37:37.787Z,1.40
2023-05-05T17:40:07.356Z,1.42
2023-05-05T17:42:35.381Z,1.65
2023-05-05T17:45:06.699Z,1.80
2023-05-05T17:47:34.870Z,1.80
2023-05-05T17:50:03.253Z,1.83
2023-05-05T17:52:31.336Z,2.17
2023-05-05T17:55:00.935Z,1.63
2023-05-05T17:57:29.085Z,1.70
2023-05-05T17:59:57.194Z,1.50
2023-05-05T18:02:25.389Z,1.83
2023-05-05T18:04:53.486Z,2.00
2023-05-05T18:07:21.472Z,2.25
2023-05-05T18:09:49.515Z,2.08
2023-05-05T18:12:19.097Z,1.80
2023-05-05T18:14:47.168Z,1.75
2023-05-05T18:17:15.230Z,2.47
2023-05-05T18:19:49.103Z,2.15
2023-05-05T18:22:17.744Z,1.88
2023-05-05T18:24:46.716Z,2.05
2023-05-05T18:27:14.793Z,2.03
2023-05-05T18:29:44.240Z,1.98
2023-05-05T18:32:12.286Z,2.42
2023-05-05T18:34:40.276Z,2.60
2023-05-05T18:37:08.273Z,2.40
2023-05-05T18:39:36.356Z,2.30
2023-05-05T18:42:04.630Z,2.90
2023-05-05T18:44:34.831Z,2.70
2023-05-05T18:47:04.303Z,3.20
2023-05-05T18:49:32.408Z,2.97
2023-05-05T18:52:00.497Z,3.30
2023-05-05T18:54:28.933Z,3.22
2023-05-05T18:56:57.371Z,3.38
2023-05-05T18:59:25.408Z,3.65
2023-05-05T19:01:56.314Z,3.47
2023-05-05T19:04:31.385Z,4.05
2023-05-05T19:07:00.060Z,3.63
2023-05-05T19:09:28.261Z,3.83
2023-05-05T19:11:56.295Z,3.42
2023-05-05T19:14:24.516Z,4.07
2023-05-05T19:16:55.748Z,3.70
2023-05-05T19:19:25.572Z,3.63
2023-05-05T19:21:55.981Z,3.85
2023-05-05T19:24:24.017Z,3.78
2023-05-05T19:26:52.094Z,4.18
2023-05-05T19:29:20.121Z,3.88
2023-05-05T19:31:51.183Z,4.03
2023-05-05T19:34:19.179Z,4.25
2023-05-05T19:36:48.642Z,4.05
2023-05-05T19:39:16.713Z,3.85
2023-05-05T19:41:44.843Z,3.85
2023-05-05T19:44:12.990Z,4.72
2023-05-05T19:46:41.232Z,4.35
2023-05-05T19:49:09.333Z,4.30
2023-05-05T19:51:37.384Z,4.30
2023-05-05T19:54:07.021Z,4.60
2023-05-05T19:56:35.032Z,4.50
2023-05-05T19:59:06.280Z,4.28
2023-05-05T20:01:34.984Z,4.40
2023-05-05T20:04:05.191Z,4.40
2023-05-05T20:06:33.736Z,4.63
2023-05-05T20:09:02.071Z,4.70
2023-05-05T20:11:32.064Z,5.22
2023-05-05T20:14:00.184Z,4.90
2023-05-05T20:16:28.358Z,5.38
2023-05-05T20:18:56.691Z,6.28
2023-05-05T20:21:24.804Z,5.63
2023-05-05T20:23:54.537Z,5.78
2023-05-05T20:26:25.804Z,5.40
2023-05-05T20:28:55.611Z,5.15
2023-05-05T20:31:23.781Z,5.75
2023-05-05T20:33:51.869Z,5.97
2023-05-05T20:36:20.043Z,7.63
2023-05-05T20:38:48.080Z,7.57
2023-05-05T20:41:16.224Z,7.25
2023-05-05T20:43:44.347Z,7.28
2023-05-05T20:46:13.749Z,6.65
2023-05-05T20:48:43.045Z,6.85
2023-05-05T20:51:11.338Z,6.18
2023-05-05T20:53:39.815Z,6.22
2023-05-05T20:56:08.970Z,6.05
2023-05-05T20:58:37.323Z,6.53
2023-05-05T21:01:05.370Z,7.10
2023-05-05T21:03:34.881Z,6.60
2023-05-05T21:06:05.119Z,6.40
2023-05-05T21:08:33.182Z,6.78
2023-05-05T21:11:01.627Z,6.85
2023-05-05T21:13:30.525Z,6.50
2023-05-05T21:15:58.557Z,6.10
2023-05-05T21:18:27.679Z,5.70
2023-05-05T21:20:57.345Z,6.47
2023-05-05T21:23:26.124Z,5.90
2023-05-05T21:25:54.186Z,6.00
2023-05-05T21:28:22.195Z,6.00
2023-05-05T21:31:10.408Z,6.63
2023-05-05T21:33:39.645Z,6.28
2023-05-05T21:36:09.368Z,6.80
2023-05-05T21:38:37.412Z,6.65
2023-05-05T21:41:05.476Z,6.68
2023-05-05T21:43:33.546Z,6.68
2023-05-05T21:46:02.491Z,6.57
2023-05-05T21:48:31.144Z,6.68
2023-05-05T21:50:59.328Z,6.18
2023-05-05T21:53:28.703Z,5.88
2023-05-05T21:55:56.970Z,6.82
2023-05-05T21:58:25.616Z,6.30
2023-05-05T22:00:53.633Z,6.75
2023-05-05T22:03:24.251Z,6.18
2023-05-05T22:05:55.000Z,6.43
2023-05-05T22:08:23.105Z,6.10
2023-05-05T22:10:52.459Z,6.63
2023-05-05T22:13:20.612Z,6.03
2023-05-05T22:15:48.915Z,6.60
2023-05-05T22:18:17.273Z,6.40
2023-05-05T22:20:46.670Z,7.00
2023-05-05T22:23:16.222Z,7.95
2023-05-05T22:25:45.453Z,7.55
2023-05-05T22:28:17.866Z,7.30
2023-05-05T22:30:45.884Z,6.93
2023-05-05T22:33:14.209Z,7.00
2023-05-05T22:35:42.261Z,7.43
2023-05-05T22:38:10.319Z,7.70
2023-05-05T22:40:38.334Z,7.80
2023-05-05T22:43:06.479Z,7.55
2023-05-05T22:45:36.154Z,6.95
2023-05-05T22:48:04.585Z,7.25
2023-05-05T22:50:32.695Z,7.65
2023-05-05T22:53:00.692Z,7.40
2023-05-05T22:55:28.782Z,7.25
2023-05-05T22:57:56.915Z,7.13
2023-05-05T23:00:25.337Z,7.72
2023-05-05T23:02:55.220Z,8.23
2023-05-05T23:05:23.414Z,7.82
2023-05-05T23:07:51.564Z,7.15
2023-05-05T23:10:19.740Z,7.30
2023-05-05T23:12:47.769Z,7.65
2023-05-05T23:15:15.830Z,7.13
2023-05-05T23:17:43.906Z,7.22
2023-05-05T23:20:14.015Z,7.93
2023-05-05T23:22:43.252Z,6.88
2023-05-05T23:25:11.693Z,7.15
2023-05-05T23:27:41.091Z,8.10
2023-05-05T23:30:10.581Z,7.45
2023-05-05T23:32:38.703Z,7.70
2023-05-05T23:35:07.859Z,6.75
2023-05-05T23:37:37.546Z,7.18
2023-05-05T23:40:06.900Z,6.93
2023-05-05T23:42:34.921Z,7.50
2023-05-05T23:45:03.069Z,7.55
2023-05-05T23:47:31.151Z,7.03
2023-05-05T23:49:59.203Z,7.78
2023-05-05T23:52:27.169Z,6.85
2023-05-05T23:54:56.638Z,7.15
2023-05-05T23:57:24.783Z,7.45
2023-05-05T23:59:52.711Z,7.43
